Etusivu
METAR-TAF:

METAR-TAF

Lentoasemat :

Jakutsk, Venäjä

Jakutskin lentoasema

Leveyspiiri: 62-01N, Pituuspiiri: 129-43E, korkeus merenpinnasta: 103 m

Tämänhetkinen sää

Tämä raportti tehtiin 34 minuuttia sitten, kello 01.00 UTC
Tuuli 2 kn idästä/koillisesta
Lämpötila -33°C
Kosteus 74%
Ilmanpaine 1019 hPa
Näkyvyys 10 km tai enemmän
heikkoa lumisadetta

METAR: UEEE 180100Z 06001MPS 9999 -SN NSC M33/M36 Q1019 R23L/490150 NOSIG RMK QFE755

Aika: 10:34 (01:34 UTC)

Sääennuste

Tämä raportti tehtiin 2 tuntia ja 34 minuuttia sitten, kello 23.00 UTC
Ennuste voimassa 18. päivästä klo 00 UTC - 19. päivään klo 06 UTC
Tuuli 6 kn pohjoisesta
Näkyvyys 10 km tai enemmän
Pilvistä 7000 ft:n korkeudessa
heikkoa lumisadetta
Ajoittain
18. päivästä klo 00 UTC - 18. päivään klo 03 UTC
Näkyvyys: 2100 m
heikkoa lumisadetta, utua

TAF: UEEE 172300Z 1800/1906 35003MPS 9999 -SN OVC070 TEMPO 1800/1803 2100 -SN BR

Säähavainnot ja -ennusteet yli 4000 lentoasemalta (METAR- ja TAF-raportit).

Käytössä olevat sääasemat on merkitty karttaan keltaisilla ja punaisilla pisteillä.

Aseta hiiri pisteen päälle nähdäksesi sääaseman nimen.

Klikkaa sitten nähdäksesi säähavainnot ja -ennusteet.

Kartan vaihtaminen: klikkaa mustalla rastilla varustettuja vihreitä pisteitä, niin voit zoomata sisään; viivalla varustettua vihreää pistettä, niin voit zoomata ulos tai vihreitä nuolia, niin pääset viereisille kartoille.


METAR-TAF: